createdAt,value
2019-03-17T00:02:35.471Z,55.90
2019-03-17T00:05:16.944Z,55.90
2019-03-17T00:07:58.413Z,55.90
2019-03-17T00:10:39.220Z,55.90
2019-03-17T00:13:20.666Z,55.90
2019-03-17T00:16:01.568Z,55.90
2019-03-17T00:18:43.181Z,55.90
2019-03-17T00:21:24.764Z,55.90
2019-03-17T00:24:05.541Z,55.90
2019-03-17T00:26:46.266Z,55.90
2019-03-17T00:29:27.227Z,55.90
2019-03-17T00:32:08.693Z,55.90
2019-03-17T00:34:51.041Z,55.90
2019-03-17T00:37:32.780Z,55.90
2019-03-17T00:40:13.446Z,55.90
2019-03-17T00:42:54.215Z,55.90
2019-03-17T00:45:35.798Z,55.90
2019-03-17T00:48:16.439Z,55.90
2019-03-17T00:50:57.810Z,55.90
2019-03-17T00:53:38.522Z,55.90
2019-03-17T00:56:20.027Z,55.90
2019-03-17T00:59:01.517Z,55.90
2019-03-17T01:01:42.309Z,55.90
2019-03-17T01:04:23.833Z,55.90
2019-03-17T01:07:05.302Z,55.90
2019-03-17T01:09:46.805Z,55.90
2019-03-17T01:12:28.277Z,55.80
2019-03-17T01:15:09.919Z,55.80
2019-03-17T01:17:51.349Z,55.80
2019-03-17T01:20:32.003Z,55.90
2019-03-17T01:23:12.694Z,55.80
2019-03-17T01:25:54.366Z,55.80
2019-03-17T01:28:35.902Z,55.80
2019-03-17T01:31:16.820Z,55.80
2019-03-17T01:33:57.726Z,55.80
2019-03-17T01:36:38.349Z,55.80
2019-03-17T01:39:19.337Z,55.90
2019-03-17T01:42:00.266Z,55.80
2019-03-17T01:44:41.198Z,55.90
2019-03-17T01:50:44.254Z,55.90
2019-03-17T01:53:25.723Z,55.90
2019-03-17T01:56:06.569Z,55.80
2019-03-17T01:58:48.049Z,55.90
2019-03-17T02:01:29.628Z,55.90
2019-03-17T02:04:10.452Z,55.80
2019-03-17T02:07:10.057Z,55.80
2019-03-17T02:09:50.964Z,55.90
2019-03-17T02:12:32.272Z,55.80
2019-03-17T02:15:13.515Z,55.90
2019-03-17T02:17:54.984Z,55.80
2019-03-17T02:20:37.668Z,55.90
2019-03-17T02:23:18.672Z,55.90
2019-03-17T02:26:00.146Z,55.90
2019-03-17T02:28:41.660Z,55.90
2019-03-17T02:31:22.438Z,55.90
2019-03-17T02:34:03.047Z,55.90
2019-03-17T02:36:44.708Z,55.90
2019-03-17T02:39:26.442Z,55.90
2019-03-17T02:42:07.649Z,55.90
2019-03-17T02:44:49.248Z,55.90
2019-03-17T02:47:30.749Z,55.90
2019-03-17T02:50:11.912Z,55.90
2019-03-17T02:52:53.112Z,55.90
2019-03-17T02:55:34.552Z,55.90
2019-03-17T02:58:16.122Z,55.90
2019-03-17T03:00:57.715Z,55.90
2019-03-17T03:03:38.729Z,55.80
2019-03-17T03:06:19.393Z,55.80
2019-03-17T03:09:01.010Z,55.80
2019-03-17T03:11:41.622Z,55.80
2019-03-17T03:14:22.214Z,55.80
2019-03-17T03:17:03.093Z,55.80
2019-03-17T03:19:43.964Z,55.80
2019-03-17T03:22:25.420Z,55.80
2019-03-17T03:25:06.929Z,55.80
2019-03-17T03:27:47.686Z,55.80
2019-03-17T03:30:29.281Z,55.80
2019-03-17T03:33:10.112Z,55.90
2019-03-17T03:35:51.791Z,55.80
2019-03-17T03:38:33.183Z,55.80
2019-03-17T03:41:14.207Z,55.90
2019-03-17T03:43:55.017Z,55.80
2019-03-17T03:46:35.932Z,55.80
2019-03-17T03:49:17.413Z,55.80
2019-03-17T03:51:58.236Z,55.90
2019-03-17T03:54:39.739Z,55.90
2019-03-17T03:57:21.056Z,55.90
2019-03-17T04:00:02.586Z,55.90
2019-03-17T04:02:43.325Z,55.80
2019-03-17T04:05:24.598Z,55.80
2019-03-17T04:08:05.365Z,55.80
2019-03-17T04:10:46.909Z,55.80
2019-03-17T04:13:28.258Z,55.90
2019-03-17T04:16:09.650Z,55.90
2019-03-17T04:18:50.410Z,55.90
2019-03-17T04:21:31.181Z,55.80
2019-03-17T04:24:12.621Z,55.80
2019-03-17T04:26:53.360Z,55.90
2019-03-17T04:29:34.103Z,55.90
2019-03-17T04:32:14.723Z,55.80
2019-03-17T04:34:56.123Z,55.80
2019-03-17T04:37:36.800Z,55.90
2019-03-17T04:40:17.449Z,55.90
2019-03-17T04:42:58.505Z,55.70
2019-03-17T04:45:39.936Z,55.70
2019-03-17T04:48:21.255Z,55.80
2019-03-17T04:51:02.390Z,55.70
2019-03-17T04:53:43.139Z,55.80
2019-03-17T04:56:24.357Z,55.70
2019-03-17T04:59:05.066Z,55.80
2019-03-17T05:01:46.641Z,55.80
2019-03-17T05:04:27.231Z,55.80
2019-03-17T05:07:08.009Z,55.80
2019-03-17T05:09:49.485Z,56.40
2019-03-17T05:12:30.246Z,55.80
2019-03-17T05:15:11.453Z,55.80
2019-03-17T05:17:52.204Z,55.80
2019-03-17T05:20:33.123Z,55.80
2019-03-17T05:23:13.727Z,55.80
2019-03-17T05:25:55.248Z,55.80
2019-03-17T05:28:36.702Z,55.80
2019-03-17T05:31:17.355Z,55.80
2019-03-17T05:33:58.211Z,55.80
2019-03-17T05:36:39.285Z,55.80
2019-03-17T05:39:20.131Z,55.80
2019-03-17T05:42:01.773Z,55.80
2019-03-17T05:44:43.330Z,55.80
2019-03-17T05:47:23.884Z,55.80
2019-03-17T05:50:04.528Z,56.40
2019-03-17T05:52:45.477Z,55.80
2019-03-17T05:55:26.058Z,55.80
2019-03-17T05:58:07.434Z,55.80
2019-03-17T06:00:48.360Z,55.80
2019-03-17T06:03:29.916Z,55.70
2019-03-17T06:06:10.823Z,55.70
2019-03-17T06:08:52.614Z,55.70
2019-03-17T06:11:34.061Z,55.70
2019-03-17T06:14:15.259Z,55.70
2019-03-17T06:16:56.105Z,55.60
2019-03-17T06:19:36.665Z,55.50
2019-03-17T06:22:17.289Z,55.50
2019-03-17T06:24:57.851Z,55.50
2019-03-17T06:27:39.146Z,55.50
2019-03-17T06:30:19.795Z,55.50
2019-03-17T06:33:00.597Z,55.50
2019-03-17T06:35:41.332Z,55.50
2019-03-17T06:38:22.240Z,55.50
2019-03-17T06:41:04.441Z,55.40
2019-03-17T06:43:45.162Z,55.50
2019-03-17T06:46:26.406Z,55.30
2019-03-17T06:49:06.971Z,55.30
2019-03-17T06:51:47.930Z,55.20
2019-03-17T06:54:29.419Z,55.20
2019-03-17T06:57:10.029Z,55.20
2019-03-17T06:59:51.068Z,55.20
2019-03-17T07:02:31.882Z,55.20
2019-03-17T07:05:13.361Z,55.10
2019-03-17T07:07:54.337Z,55.20
2019-03-17T07:10:36.137Z,55.20
2019-03-17T07:13:17.375Z,55.20
2019-03-17T07:15:58.554Z,55.20
2019-03-17T07:18:39.345Z,55.30
2019-03-17T07:21:20.008Z,55.30
2019-03-17T07:24:01.132Z,55.30
2019-03-17T07:26:42.197Z,55.30
2019-03-17T07:29:23.414Z,55.40
2019-03-17T07:32:04.560Z,55.30
2019-03-17T07:34:45.677Z,55.40
2019-03-17T07:37:27.214Z,55.40
2019-03-17T07:40:08.664Z,55.40
2019-03-17T07:42:49.376Z,55.50
2019-03-17T07:45:30.052Z,55.40
2019-03-17T07:48:10.671Z,55.40
2019-03-17T07:50:52.136Z,55.40
2019-03-17T07:53:33.696Z,55.40
2019-03-17T07:56:14.572Z,55.40
2019-03-17T07:58:55.942Z,55.40
2019-03-17T08:01:36.751Z,55.30
2019-03-17T08:04:17.995Z,55.30
2019-03-17T08:06:59.455Z,55.40
2019-03-17T08:09:40.208Z,55.30
2019-03-17T08:12:20.838Z,55.20
2019-03-17T08:15:01.535Z,55.20
2019-03-17T08:17:42.214Z,55.10
2019-03-17T08:20:23.484Z,55.20
2019-03-17T08:23:04.194Z,55.10
2019-03-17T08:25:45.705Z,55.10
2019-03-17T08:28:26.599Z,55.10
2019-03-17T08:31:08.142Z,55.00
2019-03-17T08:33:49.041Z,55.10
2019-03-17T08:36:29.706Z,55.10
2019-03-17T08:39:10.844Z,55.00
2019-03-17T08:41:51.586Z,55.00
2019-03-17T08:44:33.233Z,55.00
2019-03-17T08:47:14.806Z,55.00
2019-03-17T08:49:56.266Z,55.10
2019-03-17T08:52:37.623Z,55.00
2019-03-17T08:55:18.841Z,55.10
2019-03-17T08:58:00.236Z,55.00
2019-03-17T09:00:41.604Z,55.00
2019-03-17T09:03:22.339Z,55.00
2019-03-17T09:06:03.348Z,54.90
2019-03-17T09:08:44.348Z,55.00
2019-03-17T09:11:25.734Z,54.90
2019-03-17T09:14:06.517Z,54.80
2019-03-17T09:16:47.250Z,54.80
2019-03-17T09:19:27.920Z,54.70
2019-03-17T09:22:09.570Z,54.80
2019-03-17T09:24:50.403Z,54.80
2019-03-17T09:27:31.967Z,54.80
2019-03-17T09:30:13.431Z,54.80
2019-03-17T09:32:54.246Z,54.80
2019-03-17T09:35:35.218Z,54.80
2019-03-17T09:38:15.810Z,54.80
2019-03-17T09:40:57.256Z,54.80
2019-03-17T09:43:37.920Z,54.80
2019-03-17T09:46:18.695Z,54.80
2019-03-17T09:48:59.265Z,54.90
2019-03-17T09:51:40.766Z,54.90
2019-03-17T09:54:22.103Z,54.90
2019-03-17T09:57:03.770Z,54.90
2019-03-17T09:59:45.008Z,54.90
2019-03-17T10:02:25.959Z,54.90
2019-03-17T10:05:07.226Z,55.00
2019-03-17T10:07:48.074Z,55.00
2019-03-17T10:10:29.248Z,55.00
2019-03-17T10:13:10.693Z,55.50
2019-03-17T10:15:51.403Z,55.00
2019-03-17T10:18:32.715Z,55.00
2019-03-17T10:21:13.495Z,54.90
2019-03-17T10:23:54.890Z,55.00
2019-03-17T10:26:35.620Z,55.00
2019-03-17T10:29:16.444Z,55.10
2019-03-17T10:31:58.080Z,55.10
2019-03-17T10:34:39.713Z,55.10
2019-03-17T10:37:20.707Z,55.10
2019-03-17T10:40:01.519Z,55.10
2019-03-17T10:42:42.892Z,55.10
2019-03-17T10:45:24.326Z,55.10
2019-03-17T10:48:05.992Z,55.10
2019-03-17T10:50:49.734Z,55.10
2019-03-17T10:53:29.576Z,55.10
2019-03-17T10:56:10.422Z,55.20
2019-03-17T10:58:51.977Z,55.10
2019-03-17T11:01:33.482Z,55.20
2019-03-17T11:04:15.439Z,55.30
2019-03-17T11:06:56.694Z,55.20
2019-03-17T11:09:37.843Z,55.20
2019-03-17T11:12:19.178Z,55.20
2019-03-17T11:14:59.921Z,55.20
2019-03-17T11:17:41.521Z,55.30
2019-03-17T11:20:22.168Z,55.20
2019-03-17T11:23:03.728Z,55.30
2019-03-17T11:25:44.484Z,55.30
2019-03-17T11:28:25.898Z,55.30
2019-03-17T11:31:06.646Z,55.30
2019-03-17T11:33:47.314Z,55.30
2019-03-17T11:36:28.632Z,55.30
2019-03-17T11:39:09.492Z,55.30
2019-03-17T11:41:50.223Z,55.30
2019-03-17T11:44:31.244Z,55.30
2019-03-17T11:47:12.543Z,55.30
2019-03-17T11:49:53.240Z,55.30
2019-03-17T11:52:34.076Z,55.30
2019-03-17T11:55:14.757Z,55.30
2019-03-17T11:57:55.690Z,55.30
2019-03-17T12:00:36.886Z,55.30
2019-03-17T12:03:17.484Z,55.20
2019-03-17T12:05:58.272Z,55.20
2019-03-17T12:08:39.745Z,55.40
2019-03-17T12:11:20.817Z,55.30
2019-03-17T12:14:02.000Z,55.30
2019-03-17T12:16:43.554Z,55.30
2019-03-17T12:19:24.889Z,55.30
2019-03-17T12:22:09.364Z,55.30
2019-03-17T12:24:49.308Z,55.30
2019-03-17T12:27:30.362Z,55.30
2019-03-17T12:30:11.300Z,55.30
2019-03-17T12:32:53.058Z,55.90
2019-03-17T12:35:34.118Z,55.30
2019-03-17T12:38:15.828Z,55.30
2019-03-17T12:40:57.157Z,55.40
2019-03-17T12:43:38.769Z,55.30
2019-03-17T12:46:19.617Z,55.40
2019-03-17T12:49:01.042Z,55.40
2019-03-17T12:51:42.566Z,55.40
2019-03-17T12:54:24.093Z,55.40
2019-03-17T12:57:05.814Z,55.40
2019-03-17T12:59:46.900Z,55.40
2019-03-17T13:02:28.395Z,55.30
2019-03-17T13:05:10.292Z,55.50
2019-03-17T13:07:51.574Z,55.50
2019-03-17T13:10:33.126Z,55.40
2019-03-17T13:13:14.417Z,55.40
2019-03-17T13:15:55.961Z,55.50
2019-03-17T13:18:36.757Z,55.50
2019-03-17T13:21:18.247Z,55.50
2019-03-17T13:23:59.899Z,55.50
2019-03-17T13:26:41.701Z,55.50
2019-03-17T13:29:23.250Z,55.50
2019-03-17T13:32:04.221Z,55.60
2019-03-17T13:34:45.782Z,55.60
2019-03-17T13:37:27.324Z,55.60
2019-03-17T13:40:08.724Z,55.60
2019-03-17T13:42:50.472Z,55.70
2019-03-17T13:48:20.901Z,55.60
2019-03-17T13:53:50.396Z,55.70
2019-03-17T13:56:31.536Z,55.70
2019-03-17T14:02:00.131Z,55.70
2019-03-17T14:04:41.654Z,55.70
2019-03-17T14:07:23.315Z,55.70
2019-03-17T14:10:13.672Z,55.80
2019-03-17T14:12:47.341Z,55.80
2019-03-17T14:18:12.117Z,55.70
2019-03-17T14:20:52.736Z,55.70
2019-03-17T14:26:29.515Z,55.80
2019-03-17T14:29:11.447Z,55.80
2019-03-17T14:31:52.420Z,55.90
2019-03-17T14:34:33.040Z,55.90
2019-03-17T14:37:14.658Z,55.90
2019-03-17T14:39:56.204Z,55.90
2019-03-17T14:42:37.045Z,55.80
2019-03-17T14:45:17.794Z,55.90
2019-03-17T14:48:02.317Z,55.90
2019-03-17T14:50:43.858Z,55.90
2019-03-17T14:53:24.621Z,55.90
2019-03-17T14:56:05.396Z,55.90
2019-03-17T14:58:54.958Z,56.00
2019-03-17T15:01:37.640Z,55.90
2019-03-17T15:04:18.877Z,56.00
2019-03-17T15:06:59.515Z,56.00
2019-03-17T15:12:28.973Z,56.10
2019-03-17T15:15:10.621Z,56.00
2019-03-17T15:17:52.196Z,56.00
2019-03-17T15:23:14.264Z,56.10
2019-03-17T15:26:02.660Z,56.10
2019-03-17T15:28:51.095Z,56.10
2019-03-17T15:31:39.386Z,56.10
2019-03-17T15:37:58.179Z,56.10
2019-03-17T15:40:46.486Z,56.10
2019-03-17T15:43:34.787Z,56.10
2019-03-17T15:46:23.119Z,56.10
2019-03-17T15:52:05.017Z,56.20
2019-03-17T15:58:00.801Z,56.20
2019-03-17T16:00:41.802Z,56.20
2019-03-17T16:03:23.151Z,56.20
2019-03-17T16:06:04.501Z,56.20
2019-03-17T16:08:46.455Z,56.10
2019-03-17T16:11:31.160Z,56.00
2019-03-17T16:14:10.606Z,56.10
2019-03-17T16:16:51.942Z,56.20
2019-03-17T16:19:32.702Z,56.20
2019-03-17T16:25:02.710Z,56.20
2019-03-17T16:27:44.140Z,56.20
2019-03-17T16:30:24.885Z,56.20
2019-03-17T16:35:51.808Z,56.20
2019-03-17T16:38:33.752Z,56.20
2019-03-17T16:46:51.743Z,56.20
2019-03-17T16:52:21.495Z,56.20
2019-03-17T16:57:52.913Z,56.30
2019-03-17T17:06:11.521Z,56.30
2019-03-17T17:08:53.140Z,56.20
2019-03-17T17:14:21.545Z,56.30
2019-03-17T17:17:02.934Z,56.30
2019-03-17T17:19:43.742Z,56.20
2019-03-17T17:25:07.827Z,56.20
2019-03-17T17:27:49.445Z,56.30
2019-03-17T17:30:30.822Z,56.20
2019-03-17T17:33:11.784Z,56.20
2019-03-17T17:35:52.881Z,56.20
2019-03-17T17:38:34.502Z,56.20
2019-03-17T17:43:59.078Z,56.20
2019-03-17T17:46:40.643Z,56.20
2019-03-17T17:49:21.470Z,56.20
2019-03-17T17:52:03.724Z,56.20
2019-03-17T17:54:44.590Z,56.20
2019-03-17T17:57:25.312Z,56.20
2019-03-17T18:00:06.901Z,56.20
2019-03-17T18:02:47.800Z,56.20
2019-03-17T18:05:29.513Z,56.20
2019-03-17T18:08:10.823Z,56.20
2019-03-17T18:10:52.266Z,56.20
2019-03-17T18:13:33.984Z,56.30
2019-03-17T18:16:18.331Z,56.30
2019-03-17T18:19:02.676Z,56.30
2019-03-17T18:21:44.147Z,56.30
2019-03-17T18:24:24.788Z,56.30
2019-03-17T18:27:06.309Z,56.30
2019-03-17T18:29:46.000Z,56.20
2019-03-17T18:32:27.070Z,56.30
2019-03-17T18:35:08.710Z,56.20
2019-03-17T18:37:51.060Z,56.30
2019-03-17T18:40:32.183Z,56.30
2019-03-17T18:43:12.764Z,56.20
2019-03-17T18:45:54.019Z,56.20
2019-03-17T18:48:35.399Z,56.20
2019-03-17T18:51:19.826Z,56.20
2019-03-17T18:56:49.467Z,56.20
2019-03-17T18:59:30.834Z,56.20
2019-03-17T19:04:54.472Z,56.20
2019-03-17T19:10:19.706Z,56.20
2019-03-17T19:13:03.788Z,56.20
2019-03-17T19:15:43.826Z,56.20
2019-03-17T19:21:13.463Z,56.20
2019-03-17T19:23:55.010Z,56.20
2019-03-17T19:29:26.617Z,56.20
2019-03-17T19:32:09.655Z,56.30
2019-03-17T19:34:50.672Z,56.20
2019-03-17T19:37:31.473Z,56.80
2019-03-17T19:40:12.123Z,56.20
2019-03-17T19:42:59.020Z,56.20
2019-03-17T19:45:35.777Z,56.30
2019-03-17T19:48:17.186Z,56.20
2019-03-17T19:50:58.532Z,56.20
2019-03-17T19:53:40.086Z,56.20
2019-03-17T19:56:20.807Z,56.20
2019-03-17T19:59:02.273Z,56.20
2019-03-17T20:01:43.476Z,56.30
2019-03-17T20:07:09.149Z,56.20
2019-03-17T20:09:50.691Z,56.20
2019-03-17T20:12:31.420Z,56.20
2019-03-17T20:17:59.034Z,56.20
2019-03-17T20:20:40.251Z,56.20
2019-03-17T20:23:22.373Z,56.20
2019-03-17T20:26:03.759Z,56.30
2019-03-17T20:28:45.192Z,56.20
2019-03-17T20:31:30.217Z,56.20
2019-03-17T20:34:11.223Z,56.20
2019-03-17T20:36:52.734Z,56.20
2019-03-17T20:39:33.459Z,56.20
2019-03-17T20:42:17.084Z,56.30
2019-03-17T20:44:58.360Z,56.20
2019-03-17T20:47:39.033Z,56.20
2019-03-17T20:50:20.542Z,56.20
2019-03-17T20:53:02.100Z,56.20
2019-03-17T21:04:15.292Z,56.20
2019-03-17T21:06:56.840Z,56.30
2019-03-17T21:12:24.524Z,56.30
2019-03-17T21:15:05.499Z,56.30
2019-03-17T21:17:47.656Z,56.30
2019-03-17T21:20:28.993Z,56.30
2019-03-17T21:23:09.785Z,56.20
2019-03-17T21:25:51.177Z,56.30
2019-03-17T21:28:31.936Z,56.30
2019-03-17T21:31:13.372Z,56.30
2019-03-17T21:33:54.034Z,56.30
2019-03-17T21:36:35.792Z,56.30
2019-03-17T21:39:18.024Z,56.20
2019-03-17T21:41:59.401Z,56.30
2019-03-17T21:44:40.704Z,56.20
2019-03-17T21:47:22.014Z,56.20
2019-03-17T21:52:49.637Z,56.20
2019-03-17T21:55:30.648Z,56.20
2019-03-17T21:58:12.088Z,56.20
2019-03-17T22:00:52.872Z,56.20
2019-03-17T22:03:34.029Z,56.20
2019-03-17T22:06:15.622Z,56.20
2019-03-17T22:08:56.386Z,56.20
2019-03-17T22:11:37.884Z,56.20
2019-03-17T22:14:18.870Z,56.20
2019-03-17T22:17:00.099Z,56.20
2019-03-17T22:19:41.551Z,56.20
2019-03-17T22:22:23.068Z,56.20
2019-03-17T22:25:03.829Z,56.20
2019-03-17T22:27:44.691Z,56.20
2019-03-17T22:30:26.246Z,56.20
2019-03-17T22:33:07.028Z,56.20
2019-03-17T22:35:48.517Z,56.20
2019-03-17T22:38:30.056Z,56.20
2019-03-17T22:41:11.593Z,56.20
2019-03-17T22:43:53.402Z,56.20
2019-03-17T22:46:35.077Z,56.10
2019-03-17T22:49:16.582Z,56.20
2019-03-17T22:51:57.644Z,56.20
2019-03-17T22:54:39.032Z,56.30
2019-03-17T22:57:20.489Z,56.20
2019-03-17T23:00:01.882Z,56.10
2019-03-17T23:02:42.768Z,56.10
2019-03-17T23:05:23.428Z,56.20
2019-03-17T23:08:04.334Z,56.20
2019-03-17T23:10:45.875Z,56.30
2019-03-17T23:13:27.458Z,56.20
2019-03-17T23:16:09.104Z,56.30
2019-03-17T23:18:50.496Z,56.20
2019-03-17T23:21:32.013Z,56.20
2019-03-17T23:24:12.820Z,56.10
2019-03-17T23:26:54.414Z,56.20
2019-03-17T23:29:35.815Z,56.20
2019-03-17T23:32:16.424Z,56.10
2019-03-17T23:34:57.292Z,56.10
2019-03-17T23:37:38.876Z,56.20
2019-03-17T23:40:20.261Z,56.20
2019-03-17T23:43:01.803Z,56.10
2019-03-17T23:45:43.249Z,56.20
2019-03-17T23:48:24.562Z,56.10
2019-03-17T23:51:06.051Z,56.20
2019-03-17T23:53:47.472Z,56.10
2019-03-17T23:56:28.148Z,56.20
2019-03-17T23:59:09.411Z,56.20
